createdAt,value
2022-08-16T00:00:47.213Z,72.34
2022-08-16T00:03:16.331Z,72.40
2022-08-16T00:05:48.624Z,72.15
2022-08-16T00:08:37.161Z,72.50
2022-08-16T00:11:15.615Z,72.23
2022-08-16T00:13:53.418Z,72.65
2022-08-16T00:17:05.987Z,72.60
2022-08-16T00:19:22.335Z,72.64
2022-08-16T00:21:56.089Z,72.74
2022-08-16T00:24:32.594Z,72.81
2022-08-16T00:27:03.643Z,73.14
2022-08-16T00:29:34.092Z,72.80
2022-08-16T00:32:06.421Z,72.83
2022-08-16T00:34:45.165Z,73.27
2022-08-16T00:37:57.412Z,72.79
2022-08-16T00:40:34.895Z,73.15
2022-08-16T00:43:12.167Z,73.06
2022-08-16T00:46:00.444Z,73.02
2022-08-16T00:48:44.078Z,73.30
2022-08-16T00:51:17.979Z,72.75
2022-08-16T00:53:49.445Z,72.95
2022-08-16T00:56:57.780Z,73.20
2022-08-16T00:59:17.743Z,72.90
2022-08-16T01:01:47.569Z,73.12
2022-08-16T01:04:28.950Z,73.47
2022-08-16T01:07:02.789Z,72.86
2022-08-16T01:09:37.126Z,72.90
2022-08-16T01:12:10.660Z,72.71
2022-08-16T01:14:48.077Z,72.64
2022-08-16T01:17:19.495Z,72.41
2022-08-16T01:19:57.094Z,72.87
2022-08-16T01:22:52.232Z,72.38
2022-08-16T01:25:59.757Z,71.98
2022-08-16T01:28:45.300Z,72.09
2022-08-16T01:31:18.021Z,70.84
2022-08-16T01:33:47.093Z,67.45
2022-08-16T01:36:19.308Z,63.01
2022-08-16T01:38:57.401Z,59.46
2022-08-16T01:41:31.533Z,56.52
2022-08-16T01:44:04.014Z,54.12
2022-08-16T01:46:40.166Z,52.59
2022-08-16T01:49:21.774Z,50.44
2022-08-16T01:51:56.767Z,50.35
2022-08-16T01:54:45.037Z,48.77
2022-08-16T01:57:14.056Z,47.20
2022-08-16T01:59:43.729Z,46.46
2022-08-16T02:02:26.522Z,45.68
2022-08-16T02:04:56.349Z,44.74
2022-08-16T02:07:27.762Z,44.41
2022-08-16T02:10:02.002Z,44.03
2022-08-16T02:12:51.158Z,43.49
2022-08-16T02:15:25.802Z,42.98
2022-08-16T02:17:58.590Z,43.08
2022-08-16T02:20:29.124Z,43.30
2022-08-16T02:22:59.578Z,44.07
2022-08-16T02:25:50.973Z,44.57
2022-08-16T02:28:20.618Z,43.62
2022-08-16T02:30:54.350Z,43.93
2022-08-16T02:33:42.829Z,44.48
2022-08-16T02:36:47.211Z,43.07
2022-08-16T02:39:18.115Z,43.37
2022-08-16T02:41:53.745Z,43.92
2022-08-16T02:44:28.466Z,43.33
2022-08-16T02:46:58.473Z,44.47
2022-08-16T02:49:58.662Z,43.88
2022-08-16T02:52:29.064Z,44.36
2022-08-16T02:55:06.276Z,45.35
2022-08-16T02:57:35.195Z,43.88
2022-08-16T03:00:34.429Z,44.83
2022-08-16T03:03:03.383Z,43.64
2022-08-16T03:05:32.471Z,44.42
2022-08-16T03:08:02.901Z,43.94
2022-08-16T03:10:38.325Z,43.96
2022-08-16T03:13:12.201Z,43.54
2022-08-16T03:15:43.774Z,43.42
2022-08-16T03:18:34.110Z,43.78
2022-08-16T03:21:02.352Z,42.13
2022-08-16T03:23:35.903Z,43.52
2022-08-16T03:26:06.006Z,42.95
2022-08-16T03:28:34.939Z,42.98
2022-08-16T03:31:04.878Z,42.78
2022-08-16T03:33:36.042Z,41.87
2022-08-16T03:36:29.876Z,42.61
2022-08-16T03:38:59.660Z,42.59
2022-08-16T03:41:49.721Z,41.65
2022-08-16T03:44:44.351Z,41.80
2022-08-16T03:47:11.116Z,44.88
2022-08-16T03:49:41.540Z,42.58
2022-08-16T03:52:14.201Z,42.69
2022-08-16T03:54:57.783Z,41.84
2022-08-16T03:57:31.841Z,41.03
2022-08-16T04:00:35.250Z,43.36
2022-08-16T04:03:09.626Z,40.84
2022-08-16T04:05:47.873Z,40.41
2022-08-16T04:08:24.524Z,39.31
2022-08-16T04:10:58.006Z,39.18
2022-08-16T04:14:00.563Z,40.52
2022-08-16T04:16:26.794Z,40.98
2022-08-16T04:19:05.115Z,39.90
2022-08-16T04:21:47.630Z,40.06
2022-08-16T04:24:28.666Z,40.53
2022-08-16T04:26:58.772Z,40.57
2022-08-16T04:29:46.201Z,40.67
2022-08-16T04:32:17.284Z,40.18
2022-08-16T04:34:52.582Z,37.73
2022-08-16T04:37:21.687Z,37.86
2022-08-16T04:39:57.506Z,38.70
2022-08-16T04:42:29.653Z,39.94
2022-08-16T04:45:01.798Z,39.60
2022-08-16T04:47:36.126Z,38.28
2022-08-16T04:50:22.180Z,36.55
2022-08-16T04:53:00.539Z,36.98
2022-08-16T04:55:38.205Z,38.12
2022-08-16T04:58:45.101Z,38.82
2022-08-16T05:00:59.524Z,37.41
2022-08-16T05:03:29.041Z,36.95
2022-08-16T05:05:59.983Z,37.49
2022-08-16T05:08:34.868Z,37.81
2022-08-16T05:11:11.413Z,38.16
2022-08-16T05:13:44.511Z,36.50
2022-08-16T05:16:24.090Z,35.79
2022-08-16T05:19:03.004Z,36.71
2022-08-16T05:21:38.564Z,36.46
2022-08-16T05:24:11.705Z,35.98
2022-08-16T05:26:43.529Z,38.11
2022-08-16T05:29:24.923Z,36.94
2022-08-16T05:32:32.481Z,38.19
2022-08-16T05:35:10.747Z,38.15
2022-08-16T05:37:46.673Z,40.26
2022-08-16T05:40:17.377Z,39.90
2022-08-16T05:42:49.547Z,39.19
2022-08-16T05:45:22.019Z,38.88
2022-08-16T05:48:00.161Z,40.03
2022-08-16T05:50:56.333Z,41.25
2022-08-16T05:53:25.089Z,39.87
2022-08-16T05:56:07.999Z,38.20
2022-08-16T05:58:44.101Z,38.92
2022-08-16T06:01:15.772Z,39.93
2022-08-16T06:03:49.204Z,39.78
2022-08-16T06:06:27.926Z,39.26
2022-08-16T06:08:56.986Z,40.42
2022-08-16T06:11:26.168Z,40.73
2022-08-16T06:13:58.927Z,39.27
2022-08-16T06:16:36.164Z,39.79
2022-08-16T06:19:05.976Z,38.65
2022-08-16T06:21:37.275Z,40.40
2022-08-16T06:24:54.477Z,39.49
2022-08-16T06:26:57.394Z,37.46
2022-08-16T06:29:32.322Z,37.85
2022-08-16T06:32:01.874Z,37.37
2022-08-16T06:34:56.931Z,39.18
2022-08-16T06:37:23.756Z,38.97
2022-08-16T06:39:54.596Z,37.95
2022-08-16T06:42:29.804Z,38.47
2022-08-16T06:45:29.267Z,37.92
2022-08-16T06:48:11.926Z,36.02
2022-08-16T06:50:41.029Z,36.17
2022-08-16T06:53:11.486Z,35.34
2022-08-16T06:55:58.987Z,36.29
2022-08-16T06:58:37.004Z,35.73
2022-08-16T07:01:14.932Z,37.09
2022-08-16T07:03:54.563Z,37.62
2022-08-16T07:06:28.555Z,38.31
2022-08-16T07:09:01.922Z,37.21
2022-08-16T07:11:45.683Z,34.83
2022-08-16T07:14:24.509Z,36.25
2022-08-16T07:16:59.580Z,34.55
2022-08-16T07:20:01.340Z,34.01
2022-08-16T07:22:37.227Z,33.25
2022-08-16T07:25:20.115Z,34.29
2022-08-16T07:27:52.762Z,33.35
2022-08-16T07:30:39.636Z,34.49
2022-08-16T07:33:51.291Z,34.83
2022-08-16T07:36:10.206Z,34.11
2022-08-16T07:38:45.234Z,33.91
2022-08-16T07:41:15.088Z,33.90
2022-08-16T07:43:48.445Z,33.62
2022-08-16T07:46:39.105Z,34.20
2022-08-16T07:49:13.883Z,34.33
2022-08-16T07:51:43.253Z,33.94
2022-08-16T07:54:21.126Z,34.70
2022-08-16T07:56:56.458Z,34.52
2022-08-16T07:59:26.721Z,33.21
2022-08-16T08:02:20.308Z,33.30
2022-08-16T08:04:57.719Z,32.94
2022-08-16T08:07:32.424Z,33.75
2022-08-16T08:10:04.885Z,33.57
2022-08-16T08:12:36.270Z,33.25
2022-08-16T08:15:10.260Z,34.38
2022-08-16T08:17:43.956Z,34.74
2022-08-16T08:20:26.615Z,34.68
2022-08-16T08:23:01.718Z,35.12
2022-08-16T08:25:55.332Z,35.17
2022-08-16T08:28:31.543Z,35.27
2022-08-16T08:31:04.386Z,34.83
2022-08-16T08:33:38.864Z,34.62
2022-08-16T08:36:21.998Z,34.85
2022-08-16T08:38:55.284Z,33.42
2022-08-16T08:41:29.578Z,34.52
2022-08-16T08:44:28.537Z,35.74
2022-08-16T08:47:00.516Z,33.46
2022-08-16T08:49:46.177Z,34.07
2022-08-16T08:52:35.250Z,33.74
2022-08-16T08:55:12.667Z,32.77
2022-08-16T08:57:48.556Z,34.05
2022-08-16T09:00:51.043Z,34.33
2022-08-16T09:03:22.275Z,35.40
2022-08-16T09:05:51.952Z,34.68
2022-08-16T09:08:26.413Z,34.40
2022-08-16T09:11:03.141Z,33.14
2022-08-16T09:13:33.777Z,34.50
2022-08-16T09:16:04.552Z,34.49
2022-08-16T09:18:35.644Z,33.14
2022-08-16T09:21:09.506Z,34.10
2022-08-16T09:23:40.363Z,34.16
2022-08-16T09:26:45.001Z,36.55
2022-08-16T09:29:15.551Z,34.24
2022-08-16T09:31:53.610Z,33.47
2022-08-16T09:34:22.592Z,33.94
2022-08-16T09:36:54.675Z,33.63
2022-08-16T09:39:23.371Z,34.68
2022-08-16T09:41:54.342Z,33.87
2022-08-16T09:45:13.092Z,33.93
2022-08-16T09:47:16.108Z,34.28
2022-08-16T09:49:45.244Z,33.65
2022-08-16T09:52:19.598Z,34.46
2022-08-16T09:54:51.218Z,33.82
2022-08-16T09:57:19.808Z,35.26
2022-08-16T09:59:56.242Z,35.53
2022-08-16T10:02:27.901Z,34.79
2022-08-16T10:04:58.578Z,34.81
2022-08-16T10:07:55.811Z,35.17
2022-08-16T10:10:30.537Z,34.95
2022-08-16T10:13:14.247Z,36.01
2022-08-16T10:15:53.374Z,35.82
2022-08-16T10:19:00.209Z,35.52
2022-08-16T10:21:14.723Z,35.89
2022-08-16T10:23:44.204Z,35.99
2022-08-16T10:27:20.710Z,35.41
2022-08-16T10:29:04.893Z,35.70
2022-08-16T10:31:46.015Z,36.09
2022-08-16T10:34:32.058Z,36.71
2022-08-16T10:37:03.186Z,35.78
2022-08-16T10:39:40.497Z,36.93
2022-08-16T10:42:13.568Z,36.92
2022-08-16T10:44:46.577Z,36.57
2022-08-16T10:47:22.933Z,37.83
2022-08-16T10:49:52.282Z,36.60
2022-08-16T10:52:21.233Z,37.16
2022-08-16T10:55:37.270Z,36.44
2022-08-16T10:57:42.239Z,37.58
2022-08-16T11:00:21.311Z,37.52
2022-08-16T11:03:37.751Z,37.67
2022-08-16T11:05:59.611Z,37.13
2022-08-16T11:08:35.320Z,37.59
2022-08-16T11:11:11.466Z,37.69
2022-08-16T11:13:59.308Z,37.38
2022-08-16T11:19:19.913Z,37.21
2022-08-16T11:24:44.692Z,37.45
2022-08-16T11:27:21.219Z,38.38
2022-08-16T11:29:55.646Z,38.08
2022-08-16T11:32:32.133Z,37.58
2022-08-16T11:35:11.101Z,37.45
2022-08-16T11:38:47.665Z,37.44
2022-08-16T11:40:53.198Z,37.30
2022-08-16T11:43:26.543Z,37.56
2022-08-16T11:45:57.351Z,38.99
2022-08-16T11:48:31.821Z,37.73
2022-08-16T11:51:02.066Z,37.73
2022-08-16T11:53:35.989Z,38.25
2022-08-16T11:56:06.215Z,39.30
2022-08-16T11:58:35.253Z,38.37
2022-08-16T12:01:05.415Z,38.59
2022-08-16T12:03:35.721Z,38.65
2022-08-16T12:06:25.599Z,38.61
2022-08-16T12:09:02.109Z,38.26
2022-08-16T12:11:33.283Z,38.38
2022-08-16T12:14:05.602Z,39.59
2022-08-16T12:16:36.393Z,38.91
2022-08-16T12:19:10.591Z,38.05
2022-08-16T12:21:58.950Z,39.02
2022-08-16T12:24:29.403Z,38.72
2022-08-16T12:26:58.563Z,38.47
2022-08-16T12:29:31.754Z,37.95
2022-08-16T12:32:12.220Z,38.24
2022-08-16T12:34:52.541Z,38.59
2022-08-16T12:37:24.174Z,38.84
2022-08-16T12:39:57.567Z,38.59
2022-08-16T12:42:34.684Z,38.49
2022-08-16T12:45:13.202Z,39.42
2022-08-16T12:48:31.620Z,39.52
2022-08-16T12:50:50.350Z,39.89
2022-08-16T12:53:21.218Z,40.37
2022-08-16T12:55:51.357Z,39.84
2022-08-16T12:58:49.884Z,40.30
2022-08-16T13:01:14.198Z,39.96
2022-08-16T13:03:44.935Z,40.82
2022-08-16T13:06:20.148Z,41.76
2022-08-16T13:09:03.019Z,40.74
2022-08-16T13:11:55.087Z,41.04
2022-08-16T13:14:30.897Z,41.73
2022-08-16T13:17:07.998Z,41.91
2022-08-16T13:20:06.652Z,42.26
2022-08-16T13:22:27.381Z,43.71
2022-08-16T13:24:56.191Z,42.50
2022-08-16T13:27:59.418Z,41.76
2022-08-16T13:30:36.361Z,43.04
2022-08-16T13:33:12.397Z,43.49
2022-08-16T13:35:55.928Z,43.45
2022-08-16T13:38:35.167Z,43.29
2022-08-16T13:41:12.412Z,42.71
2022-08-16T13:43:42.621Z,43.68
2022-08-16T13:46:11.843Z,43.77
2022-08-16T13:48:44.023Z,43.49
2022-08-16T13:51:17.327Z,43.03
2022-08-16T13:53:59.852Z,43.50
2022-08-16T13:56:37.394Z,43.22
2022-08-16T13:59:19.819Z,42.60
2022-08-16T14:01:56.675Z,43.40
2022-08-16T14:04:31.738Z,43.38
2022-08-16T14:07:02.534Z,43.19
2022-08-16T14:09:32.563Z,44.37
2022-08-16T14:12:04.448Z,44.41
2022-08-16T14:14:38.591Z,44.63
2022-08-16T14:17:09.687Z,45.90
2022-08-16T14:19:44.798Z,46.78
2022-08-16T14:22:31.292Z,46.66
2022-08-16T14:25:07.244Z,46.55
2022-08-16T14:27:42.108Z,47.52
2022-08-16T14:30:15.358Z,48.17
2022-08-16T14:32:46.946Z,48.16
2022-08-16T14:35:36.655Z,48.36
2022-08-16T14:38:13.445Z,48.41
2022-08-16T14:40:55.562Z,48.34
2022-08-16T14:43:29.742Z,50.97
2022-08-16T14:45:59.763Z,52.67
2022-08-16T14:48:28.493Z,53.82
2022-08-16T14:50:57.372Z,55.28
2022-08-16T14:53:27.165Z,55.13
2022-08-16T14:55:56.151Z,56.58
2022-08-16T14:58:34.841Z,57.14
2022-08-16T15:01:06.813Z,58.32
2022-08-16T15:03:42.372Z,58.50
2022-08-16T15:06:14.539Z,57.35
2022-08-16T15:08:45.827Z,58.25
2022-08-16T15:11:17.787Z,58.17
2022-08-16T15:13:47.534Z,57.93
2022-08-16T15:16:16.785Z,57.99
2022-08-16T15:18:49.484Z,57.27
2022-08-16T15:21:18.633Z,57.64
2022-08-16T15:23:47.644Z,57.98
2022-08-16T15:26:29.655Z,57.74
2022-08-16T15:29:08.215Z,57.40
2022-08-16T15:31:42.197Z,57.56
2022-08-16T15:34:19.033Z,56.74
2022-08-16T15:36:54.956Z,56.58
2022-08-16T15:39:30.494Z,56.71
2022-08-16T15:42:11.510Z,57.04
2022-08-16T15:44:58.434Z,57.47
2022-08-16T15:47:28.507Z,56.73
2022-08-16T15:49:58.599Z,57.16
2022-08-16T15:52:33.938Z,57.36
2022-08-16T15:55:13.155Z,57.23
2022-08-16T15:57:53.019Z,57.18
2022-08-16T16:00:21.872Z,57.71
2022-08-16T16:03:00.093Z,57.78
2022-08-16T16:05:30.385Z,57.91
2022-08-16T16:08:09.894Z,58.67
2022-08-16T16:10:44.030Z,58.78
2022-08-16T16:13:24.791Z,58.46
2022-08-16T16:15:56.879Z,58.70
2022-08-16T16:18:30.452Z,58.65
2022-08-16T16:21:09.599Z,58.79
2022-08-16T16:23:54.939Z,58.96
2022-08-16T16:26:27.226Z,59.58
2022-08-16T16:29:08.065Z,59.34
2022-08-16T16:31:59.768Z,59.79
2022-08-16T16:34:32.425Z,59.66
2022-08-16T16:37:05.431Z,59.83
2022-08-16T16:39:38.914Z,59.79
2022-08-16T16:42:25.337Z,59.80
2022-08-16T16:45:01.560Z,60.40
2022-08-16T16:47:40.858Z,60.62
2022-08-16T16:50:16.022Z,60.69
2022-08-16T16:52:45.534Z,61.02
2022-08-16T16:55:16.013Z,61.02
2022-08-16T16:58:04.168Z,60.86
2022-08-16T17:00:38.145Z,60.73
2022-08-16T17:03:16.938Z,61.21
2022-08-16T17:05:54.132Z,61.14
2022-08-16T17:08:29.502Z,62.07
2022-08-16T17:10:59.807Z,61.49
2022-08-16T17:13:29.071Z,62.33
2022-08-16T17:15:57.723Z,61.62
2022-08-16T17:19:17.397Z,61.24
2022-08-16T17:21:15.691Z,61.48
2022-08-16T17:23:58.531Z,62.16
2022-08-16T17:26:30.877Z,63.06
2022-08-16T17:29:02.505Z,63.13
2022-08-16T17:31:43.290Z,62.92
2022-08-16T17:34:30.569Z,63.18
2022-08-16T17:37:05.163Z,63.57
2022-08-16T17:39:59.288Z,63.71
2022-08-16T17:42:26.566Z,62.80
2022-08-16T17:44:55.218Z,63.23
2022-08-16T17:47:24.020Z,62.77
2022-08-16T17:49:52.709Z,63.03
2022-08-16T17:52:21.361Z,63.56
2022-08-16T17:54:50.455Z,63.03
2022-08-16T17:57:18.944Z,62.47
2022-08-16T17:59:47.545Z,62.79
2022-08-16T18:02:43.451Z,62.20
2022-08-16T18:05:07.132Z,62.85
2022-08-16T18:07:38.090Z,63.13
2022-08-16T18:10:07.457Z,63.38
2022-08-16T18:12:51.008Z,63.85
2022-08-16T18:15:25.734Z,64.07
2022-08-16T18:17:54.651Z,63.78
2022-08-16T18:20:42.854Z,63.87
2022-08-16T18:23:15.385Z,64.46
2022-08-16T18:25:52.970Z,63.92
2022-08-16T18:28:22.446Z,63.44
2022-08-16T18:30:52.412Z,63.76
2022-08-16T18:33:25.168Z,64.55
2022-08-16T18:35:57.717Z,64.09
2022-08-16T18:38:27.006Z,63.96
2022-08-16T18:40:55.893Z,63.57
2022-08-16T18:43:54.377Z,63.52
2022-08-16T18:46:14.372Z,63.80
2022-08-16T18:48:43.114Z,64.05
2022-08-16T18:51:19.144Z,63.76
2022-08-16T18:53:50.014Z,64.42
2022-08-16T18:56:18.630Z,65.23
2022-08-16T18:58:47.447Z,64.51
2022-08-16T19:01:16.403Z,64.77
2022-08-16T19:03:45.022Z,65.05
2022-08-16T19:06:17.720Z,65.02
2022-08-16T19:08:46.444Z,65.12
2022-08-16T19:11:24.256Z,65.22
2022-08-16T19:13:53.096Z,65.49
2022-08-16T19:16:23.473Z,65.96
2022-08-16T19:18:51.987Z,66.38
2022-08-16T19:21:20.659Z,66.59
2022-08-16T19:23:49.297Z,65.89
2022-08-16T19:26:24.905Z,66.44
2022-08-16T19:28:58.775Z,66.78
2022-08-16T19:31:31.701Z,66.31
2022-08-16T19:34:01.079Z,67.02
2022-08-16T19:36:36.913Z,67.21
2022-08-16T19:39:10.190Z,67.53
2022-08-16T19:41:43.806Z,67.50
2022-08-16T19:44:13.527Z,67.72
2022-08-16T19:46:45.459Z,67.98
2022-08-16T19:49:15.699Z,67.26
2022-08-16T19:51:47.580Z,67.93
2022-08-16T19:54:16.855Z,67.81
2022-08-16T19:56:45.488Z,67.96
2022-08-16T19:59:19.449Z,68.04
2022-08-16T20:01:52.835Z,67.93
2022-08-16T20:04:22.695Z,67.83
2022-08-16T20:06:52.783Z,68.46
2022-08-16T20:09:22.993Z,68.34
2022-08-16T20:11:55.013Z,68.01
2022-08-16T20:14:25.173Z,68.43
2022-08-16T20:16:57.176Z,69.00
2022-08-16T20:19:28.261Z,68.92
2022-08-16T20:22:02.106Z,68.77
2022-08-16T20:24:35.349Z,69.40
2022-08-16T20:27:08.293Z,69.48
2022-08-16T20:29:39.414Z,70.27
2022-08-16T20:32:12.678Z,70.55
2022-08-16T20:34:44.724Z,70.25
2022-08-16T20:37:13.748Z,69.86
2022-08-16T20:39:46.942Z,70.58
2022-08-16T20:42:19.114Z,70.87
2022-08-16T20:44:48.165Z,71.11
2022-08-16T20:47:16.984Z,70.17
2022-08-16T20:49:45.949Z,71.75
2022-08-16T20:52:17.618Z,71.61
2022-08-16T20:54:46.920Z,72.00
2022-08-16T20:57:17.444Z,71.27
2022-08-16T20:59:50.011Z,71.34
2022-08-16T21:02:26.881Z,71.77
2022-08-16T21:04:55.945Z,71.79
2022-08-16T21:07:24.815Z,71.83
2022-08-16T21:09:53.813Z,71.96
2022-08-16T21:12:22.524Z,72.32
2022-08-16T21:14:51.560Z,72.81
2022-08-16T21:17:21.005Z,72.91
2022-08-16T21:19:49.831Z,73.30
2022-08-16T21:22:21.794Z,73.50
2022-08-16T21:24:53.838Z,73.73
2022-08-16T21:27:24.357Z,73.95
2022-08-16T21:29:55.734Z,74.57
2022-08-16T21:32:35.686Z,74.39
2022-08-16T21:35:13.456Z,74.60
2022-08-16T21:37:42.954Z,74.38
2022-08-16T21:40:35.706Z,74.93
2022-08-16T21:43:10.583Z,74.50
2022-08-16T21:45:39.268Z,74.73
2022-08-16T21:48:08.636Z,75.11
2022-08-16T21:50:39.312Z,74.91
2022-08-16T21:53:08.926Z,74.90
2022-08-16T21:55:39.761Z,74.94
2022-08-16T21:58:08.575Z,74.51
2022-08-16T22:00:38.185Z,75.28
2022-08-16T22:03:10.598Z,75.52
2022-08-16T22:05:44.673Z,75.22
2022-08-16T22:08:14.598Z,75.50
2022-08-16T22:11:06.266Z,75.12
2022-08-16T22:13:32.937Z,75.46
2022-08-16T22:16:01.676Z,75.89
2022-08-16T22:18:30.364Z,75.34
2022-08-16T22:20:59.087Z,75.19
2022-08-16T22:23:28.639Z,75.71
2022-08-16T22:25:57.702Z,75.73
2022-08-16T22:28:28.933Z,75.46
2022-08-16T22:30:57.719Z,75.29
2022-08-16T22:33:28.846Z,74.44
2022-08-16T22:36:01.311Z,74.39
2022-08-16T22:38:54.701Z,74.15
2022-08-16T22:41:18.935Z,74.56
2022-08-16T22:43:50.880Z,73.90
2022-08-16T22:46:20.347Z,73.48
2022-08-16T22:48:51.695Z,73.94
2022-08-16T22:51:22.295Z,73.62
2022-08-16T22:53:52.086Z,74.12
2022-08-16T22:56:21.488Z,74.31
2022-08-16T22:58:50.251Z,74.83
2022-08-16T23:01:22.282Z,74.34
2022-08-16T23:03:51.423Z,74.51
2022-08-16T23:06:20.071Z,74.16
2022-08-16T23:08:48.855Z,74.82
2022-08-16T23:11:21.474Z,74.80
2022-08-16T23:13:54.066Z,74.18
2022-08-16T23:16:34.280Z,74.29
2022-08-16T23:19:07.140Z,74.49
2022-08-16T23:21:37.777Z,75.03
2022-08-16T23:24:08.472Z,75.20
2022-08-16T23:26:47.496Z,75.20
2022-08-16T23:29:24.892Z,75.39
2022-08-16T23:31:57.047Z,75.32
2022-08-16T23:34:28.740Z,75.18
2022-08-16T23:36:57.813Z,75.38
2022-08-16T23:39:26.632Z,75.98
2022-08-16T23:41:56.484Z,75.46
2022-08-16T23:44:56.584Z,75.87
2022-08-16T23:47:14.037Z,75.35
2022-08-16T23:50:02.550Z,75.78
2022-08-16T23:52:53.371Z,76.22
2022-08-16T23:55:20.995Z,76.30
2022-08-16T23:57:49.913Z,76.92
